sensor_id;sensor_type;location;lat;lon;timestamp;pressure;altitude;pressure_sealevel;temperature;humidity
12763;BME280;6445;52.490;13.378;2023-07-31T00:01:18;95638.69;;;-146.10;100.00
12763;BME280;6445;52.490;13.378;2023-07-31T00:03:44;96020.97;;;-146.10;100.00
12763;BME280;6445;52.490;13.378;2023-07-31T00:06:09;100835.66;;;-146.10;100.00
12763;BME280;6445;52.490;13.378;2023-07-31T00:08:34;101738.91;;;-146.10;100.00
12763;BME280;6445;52.490;13.378;2023-07-31T00:10:59;98541.94;;;-146.10;100.00
12763;BME280;6445;52.490;13.378;2023-07-31T00:13:25;98689.69;;;-146.10;100.00
12763;BME280;6445;52.490;13.378;2023-07-31T00:15:50;98920.41;;;-146.10;100.00
12763;BME280;6445;52.490;13.378;2023-07-31T00:18:15;99098.53;;;-146.10;100.00
12763;BME280;6445;52.490;13.378;2023-07-31T00:20:41;99019.59;;;-146.10;100.00
12763;BME280;6445;52.490;13.378;2023-07-31T00:23:06;100665.53;;;-146.10;100.00
12763;BME280;6445;52.490;13.378;2023-07-31T00:25:31;100708.06;;;-146.10;100.00
12763;BME280;6445;52.490;13.378;2023-07-31T00:27:56;96902.91;;;-146.10;100.00
12763;BME280;6445;52.490;13.378;2023-07-31T00:30:22;95818.69;;;-146.10;100.00
12763;BME280;6445;52.490;13.378;2023-07-31T00:32:47;93883.59;;;-146.10;100.00
12763;BME280;6445;52.490;13.378;2023-07-31T00:35:12;95907.69;;;-146.10;100.00
12763;BME280;6445;52.490;13.378;2023-07-31T00:37:38;95628.59;;;-146.10;100.00
12763;BME280;6445;52.490;13.378;2023-07-31T00:40:03;98301.09;;;-146.10;100.00
12763;BME280;6445;52.490;13.378;2023-07-31T00:42:28;97698.06;;;-146.10;100.00
12763;BME280;6445;52.490;13.378;2023-07-31T00:44:54;96579.25;;;-146.10;100.00
12763;BME280;6445;52.490;13.378;2023-07-31T00:47:19;95679.16;;;-146.10;100.00
12763;BME280;6445;52.490;13.378;2023-07-31T00:49:45;94231.31;;;-146.10;100.00
12763;BME280;6445;52.490;13.378;2023-07-31T00:52:10;93572.28;;;-146.10;100.00
12763;BME280;6445;52.490;13.378;2023-07-31T00:54:36;92547.56;;;-146.10;100.00
12763;BME280;6445;52.490;13.378;2023-07-31T00:57:02;93038.69;;;-146.10;100.00
12763;BME280;6445;52.490;13.378;2023-07-31T00:59:27;91612.00;;;-146.10;100.00
12763;BME280;6445;52.490;13.378;2023-07-31T01:01:52;88709.72;;;-146.10;100.00
12763;BME280;6445;52.490;13.378;2023-07-31T01:04:18;88128.28;;;-146.10;100.00
12763;BME280;6445;52.490;13.378;2023-07-31T01:07:02;87827.53;;;-146.10;100.00
12763;BME280;6445;52.490;13.378;2023-07-31T01:10:04;89061.03;;;-146.10;100.00
12763;BME280;6445;52.490;13.378;2023-07-31T01:12:33;85482.69;;;-146.10;100.00
12763;BME280;6445;52.490;13.378;2023-07-31T01:15:06;84982.41;;;-146.10;100.00
12763;BME280;6445;52.490;13.378;2023-07-31T01:17:35;87282.56;;;-146.10;100.00
12763;BME280;6445;52.490;13.378;2023-07-31T01:20:03;91888.81;;;-146.10;100.00
12763;BME280;6445;52.490;13.378;2023-07-31T01:28:02;88895.47;;;-146.10;100.00
12763;BME280;6445;52.490;13.378;2023-07-31T01:30:32;90270.69;;;-146.10;100.00
12763;BME280;6445;52.490;13.378;2023-07-31T01:33:01;86614.56;;;-146.10;100.00
12763;BME280;6445;52.490;13.378;2023-07-31T01:35:32;83395.25;;;-146.10;100.00
12763;BME280;6445;52.490;13.378;2023-07-31T01:37:58;81288.78;;;-146.10;100.00
12763;BME280;6445;52.490;13.378;2023-07-31T01:40:23;83147.25;;;-146.10;100.00
12763;BME280;6445;52.490;13.378;2023-07-31T01:42:48;80017.34;;;-146.10;100.00
12763;BME280;6445;52.490;13.378;2023-07-31T01:45:14;78077.75;;;-146.10;100.00
12763;BME280;6445;52.490;13.378;2023-07-31T01:47:39;79072.63;;;-146.10;100.00
12763;BME280;6445;52.490;13.378;2023-07-31T01:50:05;75772.81;;;-146.10;100.00
12763;BME280;6445;52.490;13.378;2023-07-31T01:52:30;78456.34;;;-146.10;100.00
12763;BME280;6445;52.490;13.378;2023-07-31T01:54:55;75988.16;;;-146.10;100.00
12763;BME280;6445;52.490;13.378;2023-07-31T01:57:20;68156.81;;;-146.10;100.00
12763;BME280;6445;52.490;13.378;2023-07-31T01:59:46;83052.50;;;-146.10;100.00
12763;BME280;6445;52.490;13.378;2023-07-31T02:02:11;87222.00;;;-146.10;100.00
12763;BME280;6445;52.490;13.378;2023-07-31T02:04:36;89933.38;;;-146.10;100.00
12763;BME280;6445;52.490;13.378;2023-07-31T02:07:03;88503.78;;;-146.10;100.00
12763;BME280;6445;52.490;13.378;2023-07-31T02:09:28;82858.97;;;-146.10;100.00
12763;BME280;6445;52.490;13.378;2023-07-31T02:11:54;84230.09;;;-146.10;100.00
12763;BME280;6445;52.490;13.378;2023-07-31T02:14:19;85861.97;;;-146.10;100.00
12763;BME280;6445;52.490;13.378;2023-07-31T02:16:44;86481.38;;;-146.10;100.00
12763;BME280;6445;52.490;13.378;2023-07-31T02:19:09;87520.72;;;-146.10;100.00
12763;BME280;6445;52.490;13.378;2023-07-31T02:21:35;89794.03;;;-146.10;100.00
12763;BME280;6445;52.490;13.378;2023-07-31T02:24:00;73201.69;;;-146.10;100.00
12763;BME280;6445;52.490;13.378;2023-07-31T02:26:25;71792.09;;;-146.10;100.00
12763;BME280;6445;52.490;13.378;2023-07-31T02:28:50;55292.16;;;-146.10;100.00
12763;BME280;6445;52.490;13.378;2023-07-31T02:31:16;60104.25;;;-146.10;100.00
12763;BME280;6445;52.490;13.378;2023-07-31T02:33:41;61658.09;;;-146.10;100.00
12763;BME280;6445;52.490;13.378;2023-07-31T02:36:06;65030.56;;;-146.10;100.00
12763;BME280;6445;52.490;13.378;2023-07-31T02:38:31;75454.84;;;-146.10;100.00
12763;BME280;6445;52.490;13.378;2023-07-31T02:40:56;78134.13;;;-146.10;100.00
12763;BME280;6445;52.490;13.378;2023-07-31T02:43:22;75511.19;;;-146.10;100.00
12763;BME280;6445;52.490;13.378;2023-07-31T02:45:51;85268.84;;;-146.10;100.00
12763;BME280;6445;52.490;13.378;2023-07-31T02:48:16;80154.34;;;-146.10;100.00
12763;BME280;6445;52.490;13.378;2023-07-31T02:50:42;84659.69;;;-146.10;100.00
12763;BME280;6445;52.490;13.378;2023-07-31T02:53:07;81063.06;;;-146.10;100.00
12763;BME280;6445;52.490;13.378;2023-07-31T02:55:32;69384.28;;;-146.10;100.00
12763;BME280;6445;52.490;13.378;2023-07-31T02:57:57;69908.72;;;-146.10;100.00
12763;BME280;6445;52.490;13.378;2023-07-31T03:00:23;77652.91;;;-146.10;100.00
12763;BME280;6445;52.490;13.378;2023-07-31T03:02:49;80365.91;;;-146.10;100.00
12763;BME280;6445;52.490;13.378;2023-07-31T03:05:14;80329.63;;;-146.10;100.00
12763;BME280;6445;52.490;13.378;2023-07-31T03:07:39;77699.22;;;-146.10;100.00
12763;BME280;6445;52.490;13.378;2023-07-31T03:10:05;79880.38;;;-146.10;100.00
12763;BME280;6445;52.490;13.378;2023-07-31T03:12:30;80365.91;;;-146.10;100.00
12763;BME280;6445;52.490;13.378;2023-07-31T03:14:56;84238.16;;;-146.10;100.00
12763;BME280;6445;52.490;13.378;2023-07-31T03:17:21;85621.88;;;-146.10;100.00
12763;BME280;6445;52.490;13.378;2023-07-31T03:19:46;85841.78;;;-146.10;100.00
12763;BME280;6445;52.490;13.378;2023-07-31T03:22:11;83143.22;;;-146.10;100.00
12763;BME280;6445;52.490;13.378;2023-07-31T03:24:37;78901.41;;;-146.10;100.00
12763;BME280;6445;52.490;13.378;2023-07-31T03:27:02;79981.09;;;-146.10;100.00
12763;BME280;6445;52.490;13.378;2023-07-31T03:29:27;80236.94;;;-146.10;100.00
12763;BME280;6445;52.490;13.378;2023-07-31T03:31:52;80506.94;;;-146.10;100.00
12763;BME280;6445;52.490;13.378;2023-07-31T03:34:18;79525.81;;;-146.10;100.00
12763;BME280;6445;52.490;13.378;2023-07-31T03:36:43;77415.31;;;-146.10;100.00
12763;BME280;6445;52.490;13.378;2023-07-31T03:39:09;79195.47;;;-146.10;100.00
12763;BME280;6445;52.490;13.378;2023-07-31T03:41:34;81746.25;;;-146.10;100.00
12763;BME280;6445;52.490;13.378;2023-07-31T03:43:59;81645.50;;;-146.10;100.00
12763;BME280;6445;52.490;13.378;2023-07-31T03:46:25;79100.81;;;-146.10;100.00
12763;BME280;6445;52.490;13.378;2023-07-31T03:48:50;78242.88;;;-146.10;100.00
12763;BME280;6445;52.490;13.378;2023-07-31T03:51:16;77113.34;;;-146.10;100.00
12763;BME280;6445;52.490;13.378;2023-07-31T03:53:42;77572.38;;;-146.10;100.00
12763;BME280;6445;52.490;13.378;2023-07-31T03:56:07;77131.47;;;-146.10;100.00
12763;BME280;6445;52.490;13.378;2023-07-31T03:58:32;74291.91;;;-146.10;100.00
12763;BME280;6445;52.490;13.378;2023-07-31T04:00:58;74867.28;;;-146.10;100.00
12763;BME280;6445;52.490;13.378;2023-07-31T04:03:23;74139.00;;;-146.10;100.00
12763;BME280;6445;52.490;13.378;2023-07-31T04:05:48;75609.81;;;-146.10;100.00
12763;BME280;6445;52.490;13.378;2023-07-31T04:08:13;76833.53;;;-146.10;100.00
12763;BME280;6445;52.490;13.378;2023-07-31T04:10:39;73849.34;;;-146.10;100.00
12763;BME280;6445;52.490;13.378;2023-07-31T04:13:04;73441.03;;;-146.10;100.00
12763;BME280;6445;52.490;13.378;2023-07-31T04:15:29;73523.50;;;-146.10;100.00
12763;BME280;6445;52.490;13.378;2023-07-31T04:17:54;71315.66;;;-146.10;100.00
12763;BME280;6445;52.490;13.378;2023-07-31T04:20:20;71388.00;;;-146.10;100.00
12763;BME280;6445;52.490;13.378;2023-07-31T04:22:45;71659.41;;;-146.10;100.00
12763;BME280;6445;52.490;13.378;2023-07-31T04:25:10;72491.81;;;-146.10;100.00
12763;BME280;6445;52.490;13.378;2023-07-31T04:27:35;72642.63;;;-146.10;100.00
12763;BME280;6445;52.490;13.378;2023-07-31T04:30:01;73145.38;;;-146.10;100.00
12763;BME280;6445;52.490;13.378;2023-07-31T04:32:26;73758.81;;;-146.10;100.00
12763;BME280;6445;52.490;13.378;2023-07-31T04:34:51;72835.66;;;-146.10;100.00
12763;BME280;6445;52.490;13.378;2023-07-31T04:37:16;74161.13;;;-146.10;100.00
12763;BME280;6445;52.490;13.378;2023-07-31T04:39:42;71767.97;;;-146.10;100.00
12763;BME280;6445;52.490;13.378;2023-07-31T04:42:07;69275.78;;;-146.10;100.00
12763;BME280;6445;52.490;13.378;2023-07-31T04:44:32;71824.25;;;-146.10;100.00
12763;BME280;6445;52.490;13.378;2023-07-31T04:46:57;67463.88;;;-146.10;100.00
12763;BME280;6445;52.490;13.378;2023-07-31T04:49:23;67238.97;;;-146.10;100.00
12763;BME280;6445;52.490;13.378;2023-07-31T04:51:48;73909.69;;;-146.10;100.00
12763;BME280;6445;52.490;13.378;2023-07-31T04:54:13;74006.25;;;-146.10;100.00
12763;BME280;6445;52.490;13.378;2023-07-31T04:56:40;73328.41;;;-146.10;100.00
12763;BME280;6445;52.490;13.378;2023-07-31T04:59:06;71912.72;;;-146.10;100.00
12763;BME280;6445;52.490;13.378;2023-07-31T05:01:31;73662.28;;;-146.10;100.00
12763;BME280;6445;52.490;13.378;2023-07-31T05:03:56;71187.00;;;-146.10;100.00
12763;BME280;6445;52.490;13.378;2023-07-31T05:06:21;73531.53;;;-146.10;100.00
12763;BME280;6445;52.490;13.378;2023-07-31T05:08:47;68699.19;;;-146.10;100.00
12763;BME280;6445;52.490;13.378;2023-07-31T05:11:12;68829.75;;;-146.10;100.00
12763;BME280;6445;52.490;13.378;2023-07-31T05:13:37;70145.84;;;-146.10;100.00
12763;BME280;6445;52.490;13.378;2023-07-31T05:16:03;68938.25;;;-146.10;100.00
12763;BME280;6445;52.490;13.378;2023-07-31T05:18:28;63068.13;;;-146.10;100.00
12763;BME280;6445;52.490;13.378;2023-07-31T05:20:53;61782.44;;;-146.10;100.00
12763;BME280;6445;52.490;13.378;2023-07-31T05:23:19;64390.38;;;-146.10;100.00
12763;BME280;6445;52.490;13.378;2023-07-31T05:25:44;65148.97;;;-146.10;100.00
12763;BME280;6445;52.490;13.378;2023-07-31T05:28:09;65189.13;;;-146.10;100.00
12763;BME280;6445;52.490;13.378;2023-07-31T05:30:34;64039.19;;;-146.10;100.00
12763;BME280;6445;52.490;13.378;2023-07-31T05:33:00;60617.47;;;-146.10;100.00
12763;BME280;6445;52.490;13.378;2023-07-31T05:35:25;65598.59;;;-146.10;100.00
12763;BME280;6445;52.490;13.378;2023-07-31T05:37:50;67397.59;;;-146.10;100.00
12763;BME280;6445;52.490;13.378;2023-07-31T05:40:15;70780.97;;;-146.10;100.00
12763;BME280;6445;52.490;13.378;2023-07-31T05:42:40;67281.13;;;-146.10;100.00
12763;BME280;6445;52.490;13.378;2023-07-31T05:45:07;67556.25;;;-146.10;100.00
12763;BME280;6445;52.490;13.378;2023-07-31T05:47:32;67483.97;;;-146.10;100.00
12763;BME280;6445;52.490;13.378;2023-07-31T05:49:57;67947.91;;;-146.10;100.00
12763;BME280;6445;52.490;13.378;2023-07-31T05:52:23;67339.38;;;-146.10;100.00
12763;BME280;6445;52.490;13.378;2023-07-31T05:54:48;62083.28;;;-146.10;100.00
12763;BME280;6445;52.490;13.378;2023-07-31T05:57:13;64940.25;;;-146.10;100.00
12763;BME280;6445;52.490;13.378;2023-07-31T05:59:38;62542.56;;;-146.10;100.00
12763;BME280;6445;52.490;13.378;2023-07-31T06:02:04;64986.41;;;-146.10;100.00
12763;BME280;6445;52.490;13.378;2023-07-31T06:04:29;65996.09;;;-146.10;100.00
12763;BME280;6445;52.490;13.378;2023-07-31T06:06:54;67060.22;;;-146.10;100.00
12763;BME280;6445;52.490;13.378;2023-07-31T06:09:20;65618.69;;;-146.10;100.00
12763;BME280;6445;52.490;13.378;2023-07-31T06:11:46;66068.34;;;-146.10;100.00
12763;BME280;6445;52.490;13.378;2023-07-31T06:14:11;63347.00;;;-146.10;100.00
12763;BME280;6445;52.490;13.378;2023-07-31T06:16:36;61808.50;;;-146.10;100.00
12763;BME280;6445;52.490;13.378;2023-07-31T06:19:02;63056.09;;;-146.10;100.00
12763;BME280;6445;52.490;13.378;2023-07-31T06:21:27;62057.19;;;-146.10;100.00
12763;BME280;6445;52.490;13.378;2023-07-31T06:23:52;65795.34;;;-146.10;100.00
12763;BME280;6445;52.490;13.378;2023-07-31T06:26:18;65311.56;;;-146.10;100.00
12763;BME280;6445;52.490;13.378;2023-07-31T06:28:43;67483.97;;;-146.10;100.00
12763;BME280;6445;52.490;13.378;2023-07-31T06:31:08;67269.06;;;-146.10;100.00
12763;BME280;6445;52.490;13.378;2023-07-31T06:33:33;64500.75;;;-146.10;100.00
12763;BME280;6445;52.490;13.378;2023-07-31T06:35:59;66014.16;;;-146.10;100.00
12763;BME280;6445;52.490;13.378;2023-07-31T06:38:25;63070.13;;;-146.10;100.00
12763;BME280;6445;52.490;13.378;2023-07-31T06:40:51;57248.75;;;-146.10;100.00
12763;BME280;6445;52.490;13.378;2023-07-31T06:43:16;55041.88;;;-146.10;100.00
12763;BME280;6445;52.490;13.378;2023-07-31T06:45:41;52346.06;;;-146.10;100.00
12763;BME280;6445;52.490;13.378;2023-07-31T06:48:06;43385.22;;;-146.10;100.00
12763;BME280;6445;52.490;13.378;2023-07-31T06:50:32;60507.19;;;-146.10;100.00
12763;BME280;6445;52.490;13.378;2023-07-31T06:52:57;56984.34;;;-146.10;100.00
12763;BME280;6445;52.490;13.378;2023-07-31T06:55:22;59613.16;;;-146.10;100.00
12763;BME280;6445;52.490;13.378;2023-07-31T06:57:49;59308.50;;;-146.10;100.00
12763;BME280;6445;52.490;13.378;2023-07-31T07:00:16;58348.63;;;-146.10;100.00
12763;BME280;6445;52.490;13.378;2023-07-31T07:02:41;57837.72;;;-146.10;100.00
12763;BME280;6445;52.490;13.378;2023-07-31T07:05:07;59581.09;;;-146.10;100.00
12763;BME280;6445;52.490;13.378;2023-07-31T07:07:32;60168.41;;;-146.10;100.00
12763;BME280;6445;52.490;13.378;2023-07-31T07:09:57;59236.34;;;-146.10;100.00
12763;BME280;6445;52.490;13.378;2023-07-31T07:12:24;66170.75;;;-146.10;100.00
12763;BME280;6445;52.490;13.378;2023-07-31T07:14:50;62203.59;;;-146.10;100.00
12763;BME280;6445;52.490;13.378;2023-07-31T07:17:15;63132.31;;;-146.10;100.00
12763;BME280;6445;52.490;13.378;2023-07-31T07:19:40;61571.88;;;-146.10;100.00
12763;BME280;6445;52.490;13.378;2023-07-31T07:22:06;63409.19;;;-146.10;100.00
12763;BME280;6445;52.490;13.378;2023-07-31T07:24:32;59901.78;;;-146.10;100.00
12763;BME280;6445;52.490;13.378;2023-07-31T07:26:58;59094.06;;;-146.10;100.00
12763;BME280;6445;52.490;13.378;2023-07-31T07:29:23;36767.63;;;-146.10;100.00
12763;BME280;6445;52.490;13.378;2023-07-31T07:31:48;23677.03;;;-146.10;100.00
12763;BME280;6445;52.490;13.378;2023-07-31T07:34:13;32256.56;;;-146.10;100.00
12763;BME280;6445;52.490;13.378;2023-07-31T07:36:38;36484.66;;;-146.10;100.00
12763;BME280;6445;52.490;13.378;2023-07-31T07:39:04;30455.59;;;-146.10;100.00
12763;BME280;6445;52.490;13.378;2023-07-31T07:41:30;25586.16;;;-146.10;100.00
12763;BME280;6445;52.490;13.378;2023-07-31T07:43:55;17513.00;;;-146.10;100.00
12763;BME280;6445;52.490;13.378;2023-07-31T07:46:20;24358.34;;;-146.10;100.00
12763;BME280;6445;52.490;13.378;2023-07-31T07:48:46;20704.94;;;-146.10;100.00
12763;BME280;6445;52.490;13.378;2023-07-31T07:51:11;22201.63;;;-146.10;100.00
12763;BME280;6445;52.490;13.378;2023-07-31T07:53:36;40769.16;;;-146.10;100.00
12763;BME280;6445;52.490;13.378;2023-07-31T07:56:01;50821.84;;;-146.10;100.00
12763;BME280;6445;52.490;13.378;2023-07-31T07:58:27;54091.03;;;-146.10;100.00
12763;BME280;6445;52.490;13.378;2023-07-31T08:00:52;64731.53;;;-146.10;100.00
12763;BME280;6445;52.490;13.378;2023-07-31T08:03:17;74581.59;;;-146.10;100.00
12763;BME280;6445;52.490;13.378;2023-07-31T08:05:43;78015.34;;;-146.10;100.00
12763;BME280;6445;52.490;13.378;2023-07-31T08:08:14;79008.16;;;-146.10;100.00
12763;BME280;6445;52.490;13.378;2023-07-31T08:10:39;77830.09;;;-146.10;100.00
12763;BME280;6445;52.490;13.378;2023-07-31T08:13:04;76938.19;;;-146.10;100.00
12763;BME280;6445;52.490;13.378;2023-07-31T08:15:30;73911.69;;;-146.10;100.00
12763;BME280;6445;52.490;13.378;2023-07-31T08:17:55;74432.72;;;-146.10;100.00
12763;BME280;6445;52.490;13.378;2023-07-31T08:20:20;74106.81;;;-146.10;100.00
12763;BME280;6445;52.490;13.378;2023-07-31T08:22:45;72582.28;;;-146.10;100.00
12763;BME280;6445;52.490;13.378;2023-07-31T08:25:11;74611.78;;;-146.10;100.00
12763;BME280;6445;52.490;13.378;2023-07-31T08:27:36;73278.13;;;-146.10;100.00
12763;BME280;6445;52.490;13.378;2023-07-31T08:30:02;72409.34;;;-146.10;100.00
12763;BME280;6445;52.490;13.378;2023-07-31T08:32:27;69532.97;;;-146.10;100.00
12763;BME280;6445;52.490;13.378;2023-07-31T08:34:52;69028.66;;;-146.10;100.00
12763;BME280;6445;52.490;13.378;2023-07-31T08:37:17;63529.56;;;-146.10;100.00
12763;BME280;6445;52.490;13.378;2023-07-31T08:39:43;69121.06;;;-146.10;100.00
12763;BME280;6445;52.490;13.378;2023-07-31T08:42:08;67532.16;;;-146.10;100.00
12763;BME280;6445;52.490;13.378;2023-07-31T08:44:34;62683.00;;;-146.10;100.00
12763;BME280;6445;52.490;13.378;2023-07-31T08:47:00;50791.84;;;-146.10;100.00
12763;BME280;6445;52.490;13.378;2023-07-31T08:49:26;51073.84;;;-146.10;100.00
12763;BME280;6445;52.490;13.378;2023-07-31T08:51:52;52098.00;;;-146.10;100.00
12763;BME280;6445;52.490;13.378;2023-07-31T08:54:17;42918.16;;;-146.10;100.00
12763;BME280;6445;52.490;13.378;2023-07-31T08:56:43;42986.03;;;-146.10;100.00
12763;BME280;6445;52.490;13.378;2023-07-31T08:59:09;38061.16;;;-146.10;100.00
12763;BME280;6445;52.490;13.378;2023-07-31T09:01:39;49722.06;;;-146.10;100.00
12763;BME280;6445;52.490;13.378;2023-07-31T09:04:09;37837.91;;;-146.10;100.00
12763;BME280;6445;52.490;13.378;2023-07-31T09:06:35;30843.59;;;-146.10;100.00
12763;BME280;6445;52.490;13.378;2023-07-31T09:09:01;29964.22;;;-146.10;100.00
12763;BME280;6445;52.490;13.378;2023-07-31T09:11:26;26921.72;;;-146.10;100.00
12763;BME280;6445;52.490;13.378;2023-07-31T09:13:52;37941.56;;;-146.10;100.00
12763;BME280;6445;52.490;13.378;2023-07-31T09:16:18;29695.66;;;-146.10;100.00
12763;BME280;6445;52.490;13.378;2023-07-31T09:18:54;29916.47;;;-146.10;100.00
12763;BME280;6445;52.490;13.378;2023-07-31T09:21:21;28243.81;;;-146.10;100.00
12763;BME280;6445;52.490;13.378;2023-07-31T09:23:47;34062.38;;;-146.10;100.00
12763;BME280;6445;52.490;13.378;2023-07-31T09:26:33;49800.03;;;-146.10;100.00
12763;BME280;6445;52.490;13.378;2023-07-31T09:29:00;60222.53;;;-146.10;100.00
12763;BME280;6445;52.490;13.378;2023-07-31T09:31:41;77679.06;;;-146.10;100.00
12763;BME280;6445;52.490;13.378;2023-07-31T09:34:07;81526.59;;;-146.10;100.00
12763;BME280;6445;52.490;13.378;2023-07-31T09:36:39;79076.66;;;-146.10;100.00
12763;BME280;6445;52.490;13.378;2023-07-31T09:39:08;79686.97;;;-146.10;100.00
12763;BME280;6445;52.490;13.378;2023-07-31T09:41:38;79207.56;;;-146.10;100.00
12763;BME280;6445;52.490;13.378;2023-07-31T09:44:04;78951.78;;;-146.10;100.00
12763;BME280;6445;52.490;13.378;2023-07-31T09:46:30;76922.09;;;-146.10;100.00
12763;BME280;6445;52.490;13.378;2023-07-31T09:49:04;72934.22;;;-146.10;100.00
12763;BME280;6445;52.490;13.378;2023-07-31T09:51:30;71319.66;;;-146.10;100.00
12763;BME280;6445;52.490;13.378;2023-07-31T09:53:56;70979.94;;;-146.10;100.00
12763;BME280;6445;52.490;13.378;2023-07-31T09:56:22;63633.88;;;-146.10;100.00
12763;BME280;6445;52.490;13.378;2023-07-31T09:58:48;58659.22;;;-146.10;100.00
12763;BME280;6445;52.490;13.378;2023-07-31T10:01:13;63866.63;;;-146.10;100.00
12763;BME280;6445;52.490;13.378;2023-07-31T10:03:39;63156.41;;;-146.10;100.00
12763;BME280;6445;52.490;13.378;2023-07-31T10:06:08;55025.88;;;-146.10;100.00
12763;BME280;6445;52.490;13.378;2023-07-31T10:08:34;40908.81;;;-146.10;100.00
12763;BME280;6445;52.490;13.378;2023-07-31T10:11:01;38423.97;;;-146.10;100.00
12763;BME280;6445;52.490;13.378;2023-07-31T10:13:28;46438.50;;;-146.10;100.00
12763;BME280;6445;52.490;13.378;2023-07-31T10:15:54;43940.19;;;-146.10;100.00
12763;BME280;6445;52.490;13.378;2023-07-31T10:18:19;40053.09;;;-146.10;100.00
12763;BME280;6445;52.490;13.378;2023-07-31T10:20:46;45441.78;;;-146.10;100.00
12763;BME280;6445;52.490;13.378;2023-07-31T10:23:12;44020.06;;;-146.10;100.00
12763;BME280;6445;52.490;13.378;2023-07-31T10:25:38;57795.63;;;-146.10;100.00
12763;BME280;6445;52.490;13.378;2023-07-31T10:28:04;61995.03;;;-146.10;100.00
12763;BME280;6445;52.490;13.378;2023-07-31T10:30:30;61172.84;;;-146.10;100.00
12763;BME280;6445;52.490;13.378;2023-07-31T10:32:57;51885.94;;;-146.10;100.00
12763;BME280;6445;52.490;13.378;2023-07-31T10:35:23;32431.75;;;-146.10;100.00
12763;BME280;6445;52.490;13.378;2023-07-31T10:37:48;17901.69;;;-146.10;100.00
12763;BME280;6445;52.490;13.378;2023-07-31T10:40:19;20006.41;;;-146.10;100.00
12763;BME280;6445;52.490;13.378;2023-07-31T10:42:49;18407.44;;;-146.10;100.00
12763;BME280;6445;52.490;13.378;2023-07-31T10:45:33;17392.06;;;-146.10;100.00
12763;BME280;6445;52.490;13.378;2023-07-31T10:48:03;18407.44;;;-146.10;100.00
12763;BME280;6445;52.490;13.378;2023-07-31T10:50:31;23986.88;;;-146.10;100.00
12763;BME280;6445;52.490;13.378;2023-07-31T10:52:59;21536.59;;;-146.10;100.00
12763;BME280;6445;52.490;13.378;2023-07-31T10:55:32;22648.34;;;-146.10;100.00
12763;BME280;6445;52.490;13.378;2023-07-31T10:58:09;24954.31;;;-146.10;100.00
12763;BME280;6445;52.490;13.378;2023-07-31T11:00:37;24666.25;;;-146.10;100.00
12763;BME280;6445;52.490;13.378;2023-07-31T11:03:08;28456.59;;;-146.10;100.00
12763;BME280;6445;52.490;13.378;2023-07-31T11:05:59;28500.34;;;-146.10;100.00
12763;BME280;6445;52.490;13.378;2023-07-31T11:08:27;35323.13;;;-146.10;100.00
12763;BME280;6445;52.490;13.378;2023-07-31T11:16:04;32559.16;;;-146.10;100.00
12763;BME280;6445;52.490;13.378;2023-07-31T11:18:29;31370.91;;;-146.10;100.00
12763;BME280;6445;52.490;13.378;2023-07-31T11:20:54;34735.53;;;-146.10;100.00
12763;BME280;6445;52.490;13.378;2023-07-31T11:23:22;36383.03;;;-146.10;100.00
12763;BME280;6445;52.490;13.378;2023-07-31T11:25:48;39504.66;;;-146.10;100.00
12763;BME280;6445;52.490;13.378;2023-07-31T11:28:15;39542.56;;;-146.10;100.00
12763;BME280;6445;52.490;13.378;2023-07-31T11:30:42;42002.16;;;-146.10;100.00
12763;BME280;6445;52.490;13.378;2023-07-31T11:33:09;42856.28;;;-146.10;100.00
12763;BME280;6445;52.490;13.378;2023-07-31T11:35:43;46694.22;;;-146.10;100.00
12763;BME280;6445;52.490;13.378;2023-07-31T11:38:11;46470.47;;;-146.10;100.00
12763;BME280;6445;52.490;13.378;2023-07-31T11:40:43;47363.53;;;-146.10;100.00
12763;BME280;6445;52.490;13.378;2023-07-31T11:43:09;47135.75;;;-146.10;100.00
12763;BME280;6445;52.490;13.378;2023-07-31T11:45:36;47545.38;;;-146.10;100.00
12763;BME280;6445;52.490;13.378;2023-07-31T11:48:02;49000.38;;;-146.10;100.00
12763;BME280;6445;52.490;13.378;2023-07-31T11:50:28;48024.97;;;-146.10;100.00
12763;BME280;6445;52.490;13.378;2023-07-31T11:52:57;48026.97;;;-146.10;100.00
12763;BME280;6445;52.490;13.378;2023-07-31T11:55:24;47149.75;;;-146.10;100.00
12763;BME280;6445;52.490;13.378;2023-07-31T11:57:51;46592.34;;;-146.10;100.00
12763;BME280;6445;52.490;13.378;2023-07-31T12:00:17;46450.50;;;-146.10;100.00
12763;BME280;6445;52.490;13.378;2023-07-31T12:02:42;44738.84;;;-146.10;100.00
12763;BME280;6445;52.490;13.378;2023-07-31T12:05:12;45166.19;;;-146.10;100.00
12763;BME280;6445;52.490;13.378;2023-07-31T12:07:48;46021.00;;;-146.10;100.00
12763;BME280;6445;52.490;13.378;2023-07-31T12:10:30;46917.97;;;-146.10;100.00
12763;BME280;6445;52.490;13.378;2023-07-31T12:13:06;47917.06;;;-146.10;100.00
12763;BME280;6445;52.490;13.378;2023-07-31T12:15:40;49108.31;;;-146.10;100.00
12763;BME280;6445;52.490;13.378;2023-07-31T12:18:11;48932.41;;;-146.10;100.00
12763;BME280;6445;52.490;13.378;2023-07-31T12:20:48;48372.72;;;-146.10;100.00
12763;BME280;6445;52.490;13.378;2023-07-31T12:23:18;49630.09;;;-146.10;100.00
12763;BME280;6445;52.490;13.378;2023-07-31T12:25:44;49936.00;;;-146.10;100.00
12763;BME280;6445;52.490;13.378;2023-07-31T12:28:09;50241.94;;;-146.10;100.00
12763;BME280;6445;52.490;13.378;2023-07-31T12:30:39;50833.84;;;-146.10;100.00
12763;BME280;6445;52.490;13.378;2023-07-31T12:33:13;51213.84;;;-146.10;99.09
12763;BME280;6445;52.490;13.378;2023-07-31T12:35:43;51597.88;;;-146.10;97.97
12763;BME280;6445;52.490;13.378;2023-07-31T12:38:08;51595.88;;;-146.10;97.76